Time;durP1;ratioP1;P1;durP2;ratioP2;P2;SDS_P1;SDS_P2;PMS_P1;PMS_P2;Temp;Humidity;BMP_temperature;BMP_pressure;BME280_temperature;BME280_humidity;BME280_pressure;Samples;Min_cycle;Max_cycle;Signal;HPM_P1;HPM_P2
2022/05/13 00:00:48;;;;;;;2.83;1.73;;;13.20;99.90;;;;;;4962237;28;20536;-85
2022/05/13 00:03:16;;;;;;;1.57;1.30;;;13.20;99.90;;;;;;4959739;28;20455;-82
2022/05/13 00:05:44;;;;;;;1.60;1.50;;;13.20;99.90;;;;;;4950752;28;20500;-80
2022/05/13 00:08:13;;;;;;;3.53;1.87;;;13.10;99.90;;;;;;4948514;28;20488;-79
2022/05/13 00:10:40;;;;;;;2.13;1.70;;;13.00;99.90;;;;;;4949292;28;20503;-80
2022/05/13 00:13:09;;;;;;;7.30;2.03;;;12.90;99.90;;;;;;4946791;28;20460;-80
2022/05/13 00:15:37;;;;;;;4.00;1.87;;;12.90;99.90;;;;;;4944845;28;20445;-79
2022/05/13 00:18:05;;;;;;;3.93;2.00;;;12.80;99.90;;;;;;4946752;28;20513;-81
2022/05/13 00:20:33;;;;;;;6.57;2.00;;;12.80;99.90;;;;;;4945938;28;20483;-80
2022/05/13 00:23:01;;;;;;;2.87;1.90;;;12.80;99.90;;;;;;4944824;28;20456;-80
2022/05/13 00:25:33;;;;;;;1.90;1.80;;;12.70;99.90;;;;;;4945358;28;20837;-79
2022/05/13 00:28:02;;;;;;;7.50;2.13;;;12.70;99.90;;;;;;4944893;28;20455;-80
2022/05/13 00:30:33;;;;;;;8.23;2.00;;;12.60;99.90;;;;;;4944929;28;20861;-80
2022/05/13 00:33:01;;;;;;;6.43;2.30;;;12.50;99.90;;;;;;4944965;29;20456;-80
2022/05/13 00:35:29;;;;;;;5.27;2.27;;;12.40;99.90;;;;;;4945117;28;20455;-82
2022/05/13 00:37:58;;;;;;;4.90;1.93;;;12.40;99.90;;;;;;4945366;28;20484;-82
2022/05/13 00:40:26;;;;;;;6.63;2.50;;;12.20;99.90;;;;;;4944531;28;20532;-82
2022/05/13 00:43:01;;;;;;;7.93;2.70;;;12.20;99.90;;;;;;4944700;28;20441;-81
2022/05/13 00:45:31;;;;;;;6.40;2.77;;;12.10;99.90;;;;;;4944722;28;20970;-82
2022/05/13 00:48:00;;;;;;;5.23;2.63;;;12.00;99.90;;;;;;4945310;28;20444;-82
2022/05/13 00:50:30;;;;;;;6.77;2.93;;;11.90;99.90;;;;;;4944201;28;20484;-81
2022/05/13 00:52:58;;;;;;;5.07;2.33;;;11.90;99.90;;;;;;4956583;28;20929;-84
2022/05/13 00:55:31;;;;;;;5.07;2.20;;;11.90;99.90;;;;;;4955754;28;20445;-84
2022/05/13 00:58:01;;;;;;;10.87;3.40;;;12.00;99.90;;;;;;4956011;28;20966;-84
2022/05/13 01:00:30;;;;;;;3.87;3.00;;;12.00;99.90;;;;;;4955534;28;20496;-85
2022/05/13 01:02:58;;;;;;;4.93;2.73;;;12.00;99.90;;;;;;4955238;28;20461;-84
2022/05/13 01:05:25;;;;;;;4.30;1.90;;;11.90;99.90;;;;;;4955499;28;20460;-84
2022/05/13 01:07:53;;;;;;;8.10;3.17;;;11.90;99.90;;;;;;4954826;28;20448;-82
2022/05/13 01:10:26;;;;;;;4.30;2.43;;;11.90;99.90;;;;;;4957539;28;20767;-81
2022/05/13 01:12:57;;;;;;;2.28;2.08;;;11.90;99.90;;;;;;4957760;28;20475;-80
2022/05/13 01:15:31;;;;;;;2.63;2.00;;;11.90;99.90;;;;;;4959544;28;20370;-80
2022/05/13 01:18:07;;;;;;;8.23;3.33;;;11.90;99.90;;;;;;4948860;28;20440;-79
2022/05/13 01:20:46;;;;;;;3.03;2.43;;;12.00;99.90;;;;;;4944271;28;20464;-82
2022/05/13 01:23:19;;;;;;;5.00;2.43;;;12.00;99.90;;;;;;4956065;28;20456;-83
2022/05/13 01:25:50;;;;;;;5.90;2.50;;;12.00;99.90;;;;;;4957563;28;20532;-82
2022/05/13 01:28:22;;;;;;;5.53;3.10;;;12.00;99.90;;;;;;4958851;28;20453;-83
2022/05/13 01:30:52;;;;;;;7.83;2.70;;;12.00;99.90;;;;;;4958905;28;20510;-81
2022/05/13 01:33:21;;;;;;;4.63;2.97;;;12.10;99.90;;;;;;4960950;28;21024;-81
2022/05/13 01:35:53;;;;;;;4.80;3.23;;;12.00;99.90;;;;;;4962154;28;20464;-82
2022/05/13 01:38:25;;;;;;;7.40;2.80;;;11.90;99.90;;;;;;4967036;28;20444;-81
2022/05/13 01:40:53;;;;;;;6.63;3.10;;;11.90;99.90;;;;;;4968834;28;20521;-77
2022/05/13 01:43:21;;;;;;;5.93;2.80;;;11.80;99.90;;;;;;4962892;28;20539;-82
2022/05/13 01:45:49;;;;;;;4.33;3.20;;;11.70;99.90;;;;;;4960974;28;20523;-78
2022/05/13 01:48:17;;;;;;;8.13;3.20;;;11.70;99.90;;;;;;4956106;28;20446;-81
2022/05/13 01:50:45;;;;;;;4.60;3.23;;;11.60;99.90;;;;;;4946669;28;20495;-78
2022/05/13 01:53:13;;;;;;;3.60;3.00;;;11.60;99.90;;;;;;4945751;28;20491;-75
2022/05/13 01:55:43;;;;;;;5.13;3.23;;;11.70;99.90;;;;;;4944047;28;20532;-75
2022/05/13 01:58:12;;;;;;;5.90;3.40;;;11.70;99.90;;;;;;4944809;28;20441;-75
2022/05/13 02:00:40;;;;;;;5.03;2.33;;;11.70;99.90;;;;;;4943935;28;20460;-77
2022/05/13 02:05:54;;;;;;;9.73;3.57;;;11.70;99.90;;;;;;4945640;28;20300;-79
2022/05/13 02:08:22;;;;;;;3.20;2.90;;;11.70;99.90;;;;;;4947376;28;20447;-78
2022/05/13 02:10:51;;;;;;;4.30;2.93;;;11.70;99.90;;;;;;4943764;28;20841;-77
2022/05/13 02:13:19;;;;;;;8.80;3.40;;;11.70;99.90;;;;;;4943414;28;20924;-77
2022/05/13 02:15:47;;;;;;;8.87;3.93;;;11.70;99.90;;;;;;4942902;28;20451;-78
2022/05/13 02:18:14;;;;;;;13.53;3.53;;;11.60;99.90;;;;;;4943876;28;20793;-78
2022/05/13 02:20:42;;;;;;;6.73;3.70;;;11.60;99.90;;;;;;4944227;28;20499;-78
2022/05/13 02:23:10;;;;;;;6.70;4.10;;;11.60;99.90;;;;;;4944309;28;20447;-78
2022/05/13 02:25:38;;;;;;;6.95;3.65;;;11.60;99.90;;;;;;4942631;28;20470;-79
2022/05/13 02:28:08;;;;;;;5.87;3.40;;;11.60;99.90;;;;;;4948958;28;20197;-83
2022/05/13 02:30:36;;;;;;;9.32;5.05;;;11.50;99.90;;;;;;4946921;28;20498;-83
2022/05/13 02:33:04;;;;;;;6.43;3.25;;;11.40;99.90;;;;;;4950143;28;20229;-81
2022/05/13 02:35:32;;;;;;;5.80;4.03;;;11.40;99.90;;;;;;4949815;28;20299;-80
2022/05/13 02:38:00;;;;;;;6.05;3.40;;;11.30;99.90;;;;;;4955370;28;20666;-79
2022/05/13 02:43:12;;;;;;;8.60;3.55;;;11.20;99.90;;;;;;4944946;29;20470;-76
2022/05/13 02:45:40;;;;;;;8.73;3.90;;;11.20;99.90;;;;;;4945685;28;20212;-77
2022/05/13 02:48:08;;;;;;;7.60;3.97;;;11.20;99.90;;;;;;4944399;28;20362;-77
2022/05/13 02:50:39;;;;;;;3.15;2.92;;;11.10;99.90;;;;;;4946105;28;20233;-76
2022/05/13 02:53:08;;;;;;;13.50;3.38;;;11.10;99.90;;;;;;4945344;28;20209;-76
2022/05/13 02:55:36;;;;;;;6.65;3.22;;;11.10;99.90;;;;;;4946303;28;20779;-77
2022/05/13 02:58:04;;;;;;;7.13;3.35;;;11.00;99.90;;;;;;4945762;28;20223;-76
2022/05/13 03:00:34;;;;;;;6.85;3.50;;;11.00;99.90;;;;;;4945376;28;20225;-76
2022/05/13 03:03:02;;;;;;;4.63;3.10;;;10.90;99.90;;;;;;4945527;28;20231;-76
2022/05/13 03:05:31;;;;;;;8.70;3.33;;;10.90;99.90;;;;;;4944922;28;20265;-77
2022/05/13 03:08:01;;;;;;;4.38;3.55;;;10.80;99.90;;;;;;4944917;28;20474;-77
2022/05/13 03:10:30;;;;;;;8.55;4.85;;;10.80;99.90;;;;;;4945563;28;20648;-77
2022/05/13 03:12:58;;;;;;;5.53;2.80;;;10.80;99.90;;;;;;4945154;28;20232;-76
2022/05/13 03:15:27;;;;;;;6.70;3.83;;;10.80;99.90;;;;;;4945611;28;20220;-77
2022/05/13 03:17:56;;;;;;;4.43;3.90;;;10.80;99.90;;;;;;4945009;28;20609;-78
2022/05/13 03:20:24;;;;;;;4.10;3.55;;;10.90;99.90;;;;;;4945260;28;20568;-77
2022/05/13 03:22:53;;;;;;;11.70;3.65;;;11.00;99.90;;;;;;4945004;28;20219;-78
2022/05/13 03:25:22;;;;;;;9.40;3.92;;;11.10;99.90;;;;;;4945429;28;20205;-77
2022/05/13 03:27:50;;;;;;;10.18;4.10;;;11.10;99.90;;;;;;4944471;28;20201;-78
2022/05/13 03:30:20;;;;;;;9.70;4.20;;;11.20;99.90;;;;;;4952314;28;20289;-77
2022/05/13 03:32:48;;;;;;;6.55;4.35;;;11.30;99.90;;;;;;4955227;28;20393;-78
2022/05/13 03:35:18;;;;;;;4.03;3.73;;;11.30;99.90;;;;;;4958804;28;20273;-77
2022/05/13 03:37:46;;;;;;;4.00;3.60;;;11.40;99.90;;;;;;4963374;28;20445;-77
2022/05/13 03:40:17;;;;;;;4.80;4.05;;;11.50;99.90;;;;;;4963947;28;20457;-78
2022/05/13 03:42:45;;;;;;;11.07;5.37;;;11.60;99.90;;;;;;4963547;28;20209;-78
2022/05/13 03:45:16;;;;;;;9.55;3.63;;;11.60;99.90;;;;;;4964340;28;20445;-77
2022/05/13 03:47:44;;;;;;;7.17;3.80;;;11.70;99.90;;;;;;4958394;28;20276;-77
2022/05/13 03:50:13;;;;;;;4.20;3.90;;;11.80;99.90;;;;;;4944408;28;20980;-77
2022/05/13 03:52:43;;;;;;;5.43;3.63;;;11.90;99.90;;;;;;4944709;28;20455;-77
2022/05/13 03:55:12;;;;;;;4.10;3.60;;;11.90;99.90;;;;;;4945416;28;20660;-77
2022/05/13 03:57:40;;;;;;;9.17;3.30;;;12.00;99.90;;;;;;4946520;28;20444;-76
2022/05/13 04:00:10;;;;;;;4.93;3.60;;;12.10;99.90;;;;;;4949659;28;20465;-76
2022/05/13 04:02:39;;;;;;;7.30;4.20;;;12.20;99.90;;;;;;4950514;28;20445;-77
2022/05/13 04:10:48;;;;;;;7.10;3.53;;;12.30;99.90;;;;;;4942457;28;20496;-75
2022/05/13 04:16:06;;;;;;;8.10;4.30;;;12.50;99.90;;;;;;4952476;28;20441;-84
2022/05/13 04:18:38;;;;;;;7.93;4.50;;;12.60;99.90;;;;;;4948436;28;20425;-76
2022/05/13 04:21:08;;;;;;;6.10;3.70;;;12.60;99.90;;;;;;4948062;28;20483;-75
2022/05/13 04:23:39;;;;;;;8.70;3.87;;;12.60;99.90;;;;;;4945555;28;20601;-78
2022/05/13 04:26:07;;;;;;;5.87;4.10;;;12.70;99.90;;;;;;4947172;28;20449;-78
2022/05/13 04:28:35;;;;;;;7.33;4.07;;;12.80;99.90;;;;;;4945604;28;20451;-78
2022/05/13 04:31:03;;;;;;;5.77;3.30;;;12.80;99.90;;;;;;4943323;28;20488;-77
2022/05/13 04:33:36;;;;;;;5.30;3.90;;;12.90;99.90;;;;;;4943272;28;20796;-76
2022/05/13 04:36:04;;;;;;;6.37;3.63;;;12.90;99.90;;;;;;4948651;28;20448;-84
2022/05/13 04:38:33;;;;;;;3.90;3.43;;;13.00;99.90;;;;;;4951538;28;20460;-84
2022/05/13 04:43:45;;;;;;;6.47;3.47;;;13.10;99.90;;;;;;4956291;28;20527;-85
2022/05/13 04:46:13;;;;;;;8.20;3.10;;;13.20;99.90;;;;;;4947621;28;20978;-86
2022/05/13 04:48:41;;;;;;;5.60;3.63;;;13.20;99.90;;;;;;4946224;28;20448;-83
2022/05/13 04:51:10;;;;;;;5.17;2.93;;;13.20;99.90;;;;;;4947711;28;20477;-86
2022/05/13 04:53:39;;;;;;;5.63;3.40;;;13.30;99.90;;;;;;4949180;28;20755;-86
2022/05/13 04:56:09;;;;;;;3.40;3.00;;;13.30;99.90;;;;;;4949123;28;20740;-81
2022/05/13 04:58:39;;;;;;;5.10;3.00;;;13.40;99.90;;;;;;4950777;28;20449;-87
2022/05/13 05:01:08;;;;;;;4.87;3.33;;;13.40;99.90;;;;;;4951781;28;20480;-87
2022/05/13 05:03:37;;;;;;;6.40;3.50;;;13.40;99.90;;;;;;4952015;28;20484;-87
2022/05/13 05:06:05;;;;;;;11.00;3.60;;;13.40;99.90;;;;;;4948784;28;20539;-87
2022/05/13 05:08:36;;;;;;;8.33;3.63;;;13.40;99.90;;;;;;4957600;28;20465;-88
2022/05/13 05:11:05;;;;;;;5.63;3.40;;;13.40;99.90;;;;;;4956250;28;20591;-87
2022/05/13 05:13:37;;;;;;;5.53;3.67;;;13.40;99.90;;;;;;4965410;28;20480;-77
2022/05/13 05:16:06;;;;;;;4.70;3.90;;;13.50;99.90;;;;;;4966198;28;20471;-84
2022/05/13 05:18:34;;;;;;;3.87;3.43;;;13.50;99.90;;;;;;4964973;28;20823;-85
2022/05/13 05:21:03;;;;;;;8.90;4.47;;;13.50;99.90;;;;;;4951750;28;20488;-75
2022/05/13 05:23:33;;;;;;;4.80;3.50;;;13.50;99.90;;;;;;4949545;28;20448;-83
2022/05/13 05:26:02;;;;;;;6.83;3.33;;;13.50;99.90;;;;;;4956521;28;20662;-86
2022/05/13 05:28:31;;;;;;;10.60;3.37;;;13.40;99.90;;;;;;4959453;28;20623;-82
2022/05/13 05:31:01;;;;;;;8.53;3.77;;;13.40;99.90;;;;;;4955778;28;22416;-83
2022/05/13 05:33:29;;;;;;;4.73;3.37;;;13.30;99.90;;;;;;4955565;28;20777;-81
2022/05/13 05:35:58;;;;;;;9.10;3.73;;;13.30;99.90;;;;;;4954377;28;20789;-80
2022/05/13 05:38:26;;;;;;;9.67;3.50;;;13.30;99.90;;;;;;4959572;28;20496;-79
2022/05/13 05:40:55;;;;;;;7.53;3.23;;;13.30;99.90;;;;;;4961498;28;20469;-79
2022/05/13 05:43:23;;;;;;;4.13;2.80;;;13.30;99.90;;;;;;4961922;28;20444;-80
2022/05/13 05:45:52;;;;;;;5.83;3.50;;;13.20;99.90;;;;;;4962351;28;20455;-79
2022/05/13 05:48:22;;;;;;;10.53;3.27;;;13.30;99.90;;;;;;4955890;28;20582;-81
2022/05/13 05:50:51;;;;;;;7.00;3.27;;;13.30;99.90;;;;;;4956519;28;20468;-77
2022/05/13 05:57:13;;;;;;;5.80;2.77;;;13.30;99.90;;;;;;4951096;28;20844;-77
2022/05/13 05:58:57;;;;;;;7.23;3.90;;;13.40;99.90;;;;;;4942856;28;20456;-73
2022/05/13 06:01:24;;;;;;;3.90;3.40;;;13.30;99.90;;;;;;4942657;28;20749;-73
2022/05/13 06:03:54;;;;;;;4.73;3.10;;;13.30;99.90;;;;;;4943003;28;20457;-73
2022/05/13 06:06:21;;;;;;;5.40;3.13;;;13.40;99.90;;;;;;4942724;28;21051;-72
2022/05/13 06:08:50;;;;;;;4.10;2.87;;;13.40;99.90;;;;;;4942285;28;20854;-72
2022/05/13 06:11:17;;;;;;;4.13;3.27;;;13.60;99.90;;;;;;4942644;28;20571;-76
2022/05/13 06:13:45;;;;;;;8.47;3.60;;;13.60;99.90;;;;;;4942757;28;20811;-74
2022/05/13 06:16:13;;;;;;;7.60;3.20;;;13.70;99.90;;;;;;4942495;28;20967;-74
2022/05/13 06:18:44;;;;;;;4.90;3.00;;;13.70;99.90;;;;;;4942302;28;20447;-72
2022/05/13 06:21:13;;;;;;;8.40;4.30;;;13.70;99.90;;;;;;4942231;28;21178;-71
2022/05/13 06:23:41;;;;;;;7.10;3.40;;;13.70;99.90;;;;;;4942597;28;20818;-71
2022/05/13 06:26:09;;;;;;;5.67;3.73;;;13.70;99.90;;;;;;4942320;28;20453;-71
2022/05/13 06:28:36;;;;;;;3.30;3.00;;;13.80;99.90;;;;;;4942014;28;20441;-71
2022/05/13 06:31:04;;;;;;;4.57;2.90;;;13.90;99.90;;;;;;4941892;28;20476;-71
2022/05/13 06:33:34;;;;;;;5.87;3.50;;;13.90;99.90;;;;;;4942303;28;20757;-71
2022/05/13 06:36:01;;;;;;;7.00;3.50;;;13.80;99.90;;;;;;4942196;28;20444;-72
2022/05/13 06:38:31;;;;;;;4.93;3.33;;;13.70;99.90;;;;;;4940810;28;20453;-71
2022/05/13 06:40:58;;;;;;;5.43;3.60;;;13.70;99.90;;;;;;4938940;28;20984;-72
2022/05/13 06:43:26;;;;;;;4.73;3.70;;;13.70;99.90;;;;;;4940870;28;20448;-72
2022/05/13 06:45:55;;;;;;;8.70;4.40;;;13.80;99.90;;;;;;4937914;28;21953;-71
2022/05/13 06:48:23;;;;;;;4.47;3.90;;;13.90;99.90;;;;;;4942108;28;20850;-71
2022/05/13 06:50:51;;;;;;;7.60;3.70;;;13.90;99.90;;;;;;4937404;29;21150;-71
2022/05/13 06:53:21;;;;;;;5.93;4.40;;;13.90;99.90;;;;;;4941260;28;20477;-71
2022/05/13 06:55:51;;;;;;;3.50;3.20;;;13.90;99.90;;;;;;4934399;29;20991;-73
2022/05/13 06:58:19;;;;;;;5.60;4.00;;;13.90;99.90;;;;;;4938158;28;20743;-73
2022/05/13 07:00:47;;;;;;;6.13;4.20;;;13.90;99.90;;;;;;4940276;28;22827;-71
2022/05/13 07:03:17;;;;;;;5.80;3.33;;;13.90;99.90;;;;;;4941267;28;20556;-73
2022/05/13 07:05:45;;;;;;;7.23;3.97;;;13.90;99.90;;;;;;4940256;29;20459;-71
2022/05/13 07:08:14;;;;;;;6.83;4.50;;;13.90;99.90;;;;;;4939042;28;20452;-71
2022/05/13 07:10:43;;;;;;;6.43;3.87;;;13.90;99.90;;;;;;4941788;28;20621;-71
2022/05/13 07:13:15;;;;;;;4.70;3.60;;;13.90;99.90;;;;;;4942587;28;20481;-73
2022/05/13 07:15:45;;;;;;;5.10;3.30;;;13.80;99.90;;;;;;4939199;28;20613;-73
2022/05/13 07:18:13;;;;;;;4.60;3.67;;;13.80;99.90;;;;;;4943143;28;20676;-73
2022/05/13 07:20:41;;;;;;;6.30;3.60;;;13.90;99.90;;;;;;4937755;28;20498;-74
2022/05/13 07:23:09;;;;;;;7.20;4.40;;;13.90;99.90;;;;;;4943837;28;21070;-73
2022/05/13 07:25:37;;;;;;;4.67;3.40;;;13.80;99.90;;;;;;4942687;28;20454;-73
2022/05/13 07:28:05;;;;;;;7.63;3.90;;;13.90;99.90;;;;;;4940990;28;20479;-73
2022/05/13 07:30:34;;;;;;;6.70;4.13;;;13.90;99.90;;;;;;4936609;28;20563;-73
2022/05/13 07:33:02;;;;;;;10.40;4.00;;;13.90;99.90;;;;;;4922534;29;20485;-73
2022/05/13 07:35:31;;;;;;;6.10;4.00;;;13.90;99.90;;;;;;4940912;29;20453;-73
2022/05/13 07:37:59;;;;;;;8.57;4.60;;;13.90;99.90;;;;;;4940731;28;20849;-73
2022/05/13 07:43:12;;;;;;;7.13;3.70;;;14.10;99.90;;;;;;4941211;28;20444;-73
2022/05/13 07:45:41;;;;;;;6.47;3.70;;;14.20;99.90;;;;;;4941779;28;20452;-73
2022/05/13 07:48:10;;;;;;;6.70;4.70;;;14.30;99.90;;;;;;4941187;28;20681;-73
2022/05/13 07:50:38;;;;;;;6.30;4.70;;;14.30;99.90;;;;;;4940096;29;21120;-71
2022/05/13 07:53:06;;;;;;;9.87;4.80;;;14.40;99.90;;;;;;4941124;28;20785;-71
2022/05/13 07:55:34;;;;;;;9.47;5.33;;;14.30;99.90;;;;;;4941231;28;20532;-72
2022/05/13 07:58:02;;;;;;;9.23;4.20;;;14.30;99.90;;;;;;4940850;28;20928;-72
2022/05/13 08:00:32;;;;;;;9.60;4.87;;;14.30;99.90;;;;;;4940907;28;20625;-71
2022/05/13 08:03:05;;;;;;;5.37;4.87;;;14.30;99.90;;;;;;4941122;28;20815;-72
2022/05/13 08:05:37;;;;;;;9.30;4.03;;;14.40;99.90;;;;;;4940368;28;20445;-71
2022/05/13 08:08:08;;;;;;;10.10;5.10;;;14.40;99.90;;;;;;4940359;28;20460;-72
2022/05/13 08:10:37;;;;;;;10.40;4.77;;;14.40;99.90;;;;;;4920665;28;20877;-70
2022/05/13 08:13:06;;;;;;;6.20;4.67;;;14.40;99.90;;;;;;4920994;29;21031;-71
2022/05/13 08:15:35;;;;;;;8.63;5.23;;;14.60;99.90;;;;;;4921119;29;20872;-72
2022/05/13 08:18:04;;;;;;;7.47;4.40;;;14.70;99.90;;;;;;4921122;29;20449;-71
2022/05/13 08:20:32;;;;;;;7.70;4.73;;;14.90;99.90;;;;;;4921253;29;20472;-77
2022/05/13 08:23:00;;;;;;;10.77;4.37;;;15.00;99.90;;;;;;4931553;28;20461;-80
2022/05/13 08:25:29;;;;;;;10.43;5.53;;;15.10;99.90;;;;;;4948182;28;20845;-80
2022/05/13 08:27:56;;;;;;;10.43;4.30;;;15.20;99.90;;;;;;4948821;28;20952;-79
2022/05/13 08:30:25;;;;;;;8.40;5.97;;;15.20;99.90;;;;;;4947952;28;20469;-80
2022/05/13 08:32:53;;;;;;;8.53;5.20;;;15.10;99.90;;;;;;4947626;28;20721;-80
2022/05/13 08:35:22;;;;;;;6.50;4.40;;;15.20;99.90;;;;;;4948473;28;20495;-79
2022/05/13 08:37:53;;;;;;;6.13;4.83;;;15.20;99.90;;;;;;4946205;28;20495;-79
2022/05/13 08:40:39;;;;;;;9.23;4.93;;;15.20;99.90;;;;;;4944756;28;20477;-78
2022/05/13 08:43:11;;;;;;;7.70;4.33;;;15.10;99.90;;;;;;4945704;28;20445;-81
2022/05/13 08:45:41;;;;;;;6.83;4.70;;;15.10;99.90;;;;;;4943008;28;20865;-79
2022/05/13 08:48:14;;;;;;;8.33;5.33;;;15.20;99.90;;;;;;4945213;28;20445;-76
2022/05/13 08:50:56;;;;;;;7.90;5.60;;;15.30;99.90;;;;;;4939946;28;20482;-76
2022/05/13 08:53:30;;;;;;;6.50;4.50;;;15.30;99.90;;;;;;4937063;28;21030;-79
2022/05/13 08:56:02;;;;;;;5.83;5.17;;;15.60;99.90;;;;;;4941254;29;20979;-78
2022/05/13 08:58:33;;;;;;;9.40;4.93;;;15.70;99.90;;;;;;4939406;28;20468;-77
2022/05/13 09:01:06;;;;;;;9.13;5.43;;;16.00;99.90;;;;;;4932899;29;21102;-76
2022/05/13 09:03:40;;;;;;;9.50;5.50;;;16.20;99.90;;;;;;4939605;28;20496;-75
2022/05/13 09:06:15;;;;;;;8.50;5.47;;;16.30;99.90;;;;;;4937189;28;20547;-75
2022/05/13 09:08:47;;;;;;;7.33;5.00;;;16.30;99.90;;;;;;4938816;29;20432;-77
2022/05/13 09:11:21;;;;;;;9.77;4.73;;;16.50;99.90;;;;;;4938986;28;20468;-77
2022/05/13 09:13:59;;;;;;;11.53;5.10;;;16.60;99.90;;;;;;4939804;28;21015;-77
2022/05/13 09:16:43;;;;;;;5.70;3.87;;;16.90;99.90;;;;;;4938423;29;20446;-75
2022/05/13 09:19:19;;;;;;;11.37;5.80;;;17.10;99.90;;;;;;4939829;29;20653;-77
2022/05/13 09:21:48;;;;;;;7.23;5.33;;;17.20;99.90;;;;;;4940362;29;21152;-75
2022/05/13 09:24:16;;;;;;;10.50;4.90;;;17.30;99.90;;;;;;4941696;28;20441;-78
2022/05/13 09:26:45;;;;;;;9.80;5.17;;;17.20;99.90;;;;;;4939628;28;20456;-76
2022/05/13 09:29:17;;;;;;;11.87;5.63;;;17.30;99.90;;;;;;4941413;28;20453;-72
2022/05/13 09:31:48;;;;;;;7.67;5.50;;;17.40;99.90;;;;;;4937357;29;20489;-74
2022/05/13 09:34:30;;;;;;;6.37;4.50;;;17.50;99.90;;;;;;4940499;29;20484;-73
2022/05/13 09:37:09;;;;;;;11.77;6.10;;;17.50;99.90;;;;;;4939126;28;20497;-76
2022/05/13 09:39:39;;;;;;;15.33;7.03;;;17.60;99.90;;;;;;4938516;29;20450;-74
2022/05/13 09:42:22;;;;;;;10.77;5.17;;;17.70;99.90;;;;;;4940709;28;20557;-75
2022/05/13 09:44:52;;;;;;;11.60;5.70;;;17.60;99.90;;;;;;4937543;29;20440;-77
2022/05/13 09:47:29;;;;;;;16.20;5.33;;;17.50;99.90;;;;;;4939735;28;20445;-74
2022/05/13 09:50:24;;;;;;;12.80;5.50;;;17.60;99.90;;;;;;4922380;29;20897;-75
2022/05/13 09:52:54;;;;;;;7.77;5.10;;;17.50;99.90;;;;;;4923812;29;20458;-76
2022/05/13 09:55:27;;;;;;;9.37;6.30;;;17.50;99.90;;;;;;4940482;28;20848;-77
2022/05/13 09:58:00;;;;;;;12.40;5.80;;;17.50;99.90;;;;;;4943490;28;20438;-76
2022/05/13 10:00:31;;;;;;;5.40;4.30;;;17.50;99.90;;;;;;4942515;28;20862;-78
2022/05/13 10:03:17;;;;;;;8.73;4.80;;;17.60;99.90;;;;;;4943171;28;20531;-75
2022/05/13 10:05:52;;;;;;;9.80;5.10;;;17.70;99.90;;;;;;4943459;28;21041;-74
2022/05/13 10:08:26;;;;;;;9.03;4.83;;;17.70;99.90;;;;;;4943773;28;20869;-74
2022/05/13 10:14:00;;;;;;;11.53;5.20;;;17.70;99.90;;;;;;4946989;28;20481;-78
2022/05/13 10:16:34;;;;;;;7.50;4.90;;;17.60;99.90;;;;;;4947811;28;20759;-78
2022/05/13 10:19:09;;;;;;;7.00;4.30;;;17.50;99.90;;;;;;4949028;28;20515;-79
2022/05/13 10:21:43;;;;;;;8.87;4.73;;;17.40;99.90;;;;;;4947355;28;20462;-78
2022/05/13 10:24:32;;;;;;;10.90;5.50;;;17.60;99.90;;;;;;4950964;28;20534;-79
2022/05/13 10:27:02;;;;;;;10.33;4.97;;;17.90;99.90;;;;;;4952305;28;20541;-80
2022/05/13 10:29:36;;;;;;;10.63;3.87;;;18.00;99.90;;;;;;4954070;28;20930;-77
2022/05/13 10:32:18;;;;;;;13.57;5.40;;;18.00;99.90;;;;;;4954613;28;20772;-78
2022/05/13 10:34:53;;;;;;;13.10;5.80;;;17.80;99.90;;;;;;4952027;28;20492;-80
2022/05/13 10:37:28;;;;;;;6.30;5.30;;;17.30;99.90;;;;;;4953340;28;20454;-78
2022/05/13 10:40:03;;;;;;;9.27;6.03;;;16.80;99.90;;;;;;4946911;28;21064;-75
2022/05/13 10:42:35;;;;;;;7.27;6.53;;;16.20;99.90;;;;;;4944562;28;20540;-74
2022/05/13 10:45:08;;;;;;;10.80;6.07;;;15.60;99.90;;;;;;4941680;28;20968;-74
2022/05/13 10:47:43;;;;;;;13.03;6.13;;;15.20;99.90;;;;;;4942767;28;20880;-74
2022/05/13 10:50:16;;;;;;;5.40;4.87;;;15.00;99.90;;;;;;4941853;28;20998;-74
2022/05/13 10:52:55;;;;;;;8.63;4.60;;;15.00;99.90;;;;;;4941518;28;20449;-76
2022/05/13 10:55:36;;;;;;;10.27;4.60;;;15.10;99.90;;;;;;4942231;28;20512;-74
2022/05/13 10:58:17;;;;;;;8.73;4.33;;;15.30;99.90;;;;;;4941157;28;20853;-74
2022/05/13 11:00:52;;;;;;;4.90;4.40;;;15.40;99.90;;;;;;4941602;28;20467;-71
2022/05/13 11:03:36;;;;;;;6.57;4.00;;;15.60;99.90;;;;;;4941636;28;20459;-74
2022/05/13 11:06:28;;;;;;;7.10;4.43;;;15.80;99.90;;;;;;4941885;28;20496;-75
2022/05/13 11:09:02;;;;;;;5.30;3.80;;;16.00;99.90;;;;;;4943275;28;20468;-81
2022/05/13 11:11:40;;;;;;;5.73;4.57;;;16.00;99.90;;;;;;4945985;28;20468;-80
2022/05/13 11:14:22;;;;;;;6.30;4.13;;;16.00;99.90;;;;;;4945180;28;20484;-80
2022/05/13 11:16:57;;;;;;;9.07;4.70;;;16.00;99.90;;;;;;4945975;28;20536;-80
2022/05/13 11:19:30;;;;;;;5.57;4.10;;;16.10;99.90;;;;;;4944707;28;20456;-81
2022/05/13 11:22:03;;;;;;;6.03;4.77;;;16.20;99.90;;;;;;4943286;28;20870;-80
2022/05/13 11:28:03;;;;;;;5.03;3.87;;;16.30;99.90;;;;;;4924589;29;20450;-79
2022/05/13 11:30:43;;;;;;;6.43;3.90;;;16.40;99.90;;;;;;4928191;29;21240;-81
2022/05/13 11:33:23;;;;;;;6.00;3.43;;;16.60;99.90;;;;;;4940661;28;20457;-79
2022/05/13 11:36:07;;;;;;;4.97;2.50;;;16.60;99.90;;;;;;4944362;28;20856;-81
2022/05/13 11:38:52;;;;;;;4.40;2.37;;;16.60;99.90;;;;;;4943950;28;20964;-80
2022/05/13 11:41:23;;;;;;;4.20;3.07;;;16.60;99.90;;;;;;4943686;28;20469;-80
2022/05/13 11:44:17;;;;;;;5.23;2.77;;;16.80;99.90;;;;;;4947073;28;20748;-81
2022/05/13 11:46:55;;;;;;;3.17;2.20;;;16.80;99.90;;;;;;4937822;29;20986;-80
2022/05/13 11:49:27;;;;;;;5.10;2.93;;;16.80;99.90;;;;;;4944105;28;21092;-80
2022/05/13 11:51:56;;;;;;;2.83;2.30;;;16.80;99.90;;;;;;4940758;29;21021;-80
2022/05/13 11:54:27;;;;;;;3.17;2.80;;;16.90;99.90;;;;;;4943534;28;20495;-81
2022/05/13 11:57:21;;;;;;;5.67;3.70;;;16.90;99.90;;;;;;4941413;29;21148;-79
2022/05/13 11:59:52;;;;;;;3.60;3.07;;;16.80;99.90;;;;;;4942881;28;20948;-79
2022/05/13 12:02:51;;;;;;;6.63;3.30;;;16.80;99.90;;;;;;4941140;28;20457;-77
2022/05/13 12:05:34;;;;;;;3.17;2.97;;;16.90;99.90;;;;;;4941313;28;20556;-76
2022/05/13 12:08:24;;;;;;;7.90;3.47;;;17.10;99.90;;;;;;4927617;29;21103;-77
2022/05/13 12:11:03;;;;;;;5.73;3.20;;;17.20;99.90;;;;;;4937946;28;20591;-79
2022/05/13 12:13:41;;;;;;;3.43;3.13;;;17.40;99.90;;;;;;4942029;28;20530;-75
2022/05/13 12:16:23;;;;;;;4.47;3.03;;;17.70;99.90;;;;;;4941521;28;20525;-77
2022/05/13 12:18:57;;;;;;;11.27;3.50;;;18.00;99.90;;;;;;4942387;28;20458;-77
2022/05/13 12:21:34;;;;;;;4.37;2.93;;;18.30;99.90;;;;;;4943988;28;20480;-74
2022/05/13 12:24:05;;;;;;;5.50;3.27;;;18.50;99.90;;;;;;4926973;28;20826;-75
2022/05/13 12:27:17;;;;;;;2.63;2.43;;;18.70;99.90;;;;;;4937246;29;20462;-75
2022/05/13 12:30:00;;;;;;;7.70;3.40;;;18.80;99.90;;;;;;4928198;28;20461;-76
2022/05/13 12:32:41;;;;;;;3.30;2.07;;;18.60;99.90;;;;;;4940266;28;20467;-76
2022/05/13 12:38:12;;;;;;;2.77;1.90;;;18.40;99.90;;;;;;4940379;28;20447;-76
2022/05/13 12:40:59;;;;;;;5.97;2.27;;;18.20;99.90;;;;;;4940297;28;20478;-76
2022/05/13 12:43:45;;;;;;;2.43;1.87;;;18.10;99.90;;;;;;4940728;28;20764;-75
2022/05/13 12:46:17;;;;;;;3.60;2.37;;;18.00;99.90;;;;;;4940457;28;20441;-76
2022/05/13 12:49:18;;;;;;;5.90;2.70;;;18.00;99.90;;;;;;4940845;28;20934;-75
2022/05/13 12:51:53;;;;;;;3.50;3.13;;;18.10;99.90;;;;;;4908836;28;20833;-75
2022/05/13 12:54:25;;;;;;;3.03;2.83;;;18.00;99.90;;;;;;4940065;28;20444;-75
2022/05/13 12:56:59;;;;;;;3.50;2.40;;;17.90;99.90;;;;;;4939874;28;20484;-76
2022/05/13 12:59:51;;;;;;;6.87;3.93;;;17.80;99.90;;;;;;4939791;28;20722;-76
2022/05/13 13:02:22;;;;;;;4.17;3.77;;;17.50;99.90;;;;;;4940163;28;20437;-77
2022/05/13 13:04:57;;;;;;;8.27;4.10;;;17.00;99.90;;;;;;4939576;28;20451;-75
2022/05/13 13:07:28;;;;;;;4.30;2.70;;;16.40;99.90;;;;;;4939817;28;20459;-76
2022/05/13 13:09:58;;;;;;;3.83;3.30;;;15.90;99.90;;;;;;4940385;28;20433;-78
2022/05/13 13:12:30;;;;;;;6.70;4.00;;;15.60;99.90;;;;;;4939932;28;20709;-76
2022/05/13 13:15:22;;;;;;;6.53;2.73;;;15.40;99.90;;;;;;4939713;28;20481;-76
2022/05/13 13:17:55;;;;;;;6.73;3.23;;;15.20;99.90;;;;;;4940152;28;20963;-78
2022/05/13 13:20:28;;;;;;;3.77;3.00;;;15.00;99.90;;;;;;4939686;28;20478;-76
2022/05/13 13:22:59;;;;;;;4.77;3.13;;;15.00;99.90;;;;;;4939856;28;20429;-76
2022/05/13 13:25:31;;;;;;;2.90;2.53;;;15.00;99.90;;;;;;4940030;28;20705;-76
2022/05/13 13:28:01;;;;;;;3.80;2.97;;;15.00;99.90;;;;;;4940491;28;20628;-76
2022/05/13 13:30:32;;;;;;;2.80;2.40;;;15.10;99.90;;;;;;4940653;28;20461;-76
2022/05/13 13:33:07;;;;;;;3.33;2.70;;;15.20;99.90;;;;;;4944003;28;20526;-76
2022/05/13 13:35:38;;;;;;;3.90;2.23;;;15.30;99.90;;;;;;4944628;28;20492;-77
2022/05/13 13:38:08;;;;;;;3.73;3.17;;;15.40;99.90;;;;;;4945617;28;20502;-77
2022/05/13 13:40:39;;;;;;;3.13;2.63;;;15.60;99.90;;;;;;4945443;28;20460;-77